Hereubreiearlindir Airport


Codes: BIHE/
Name: Hereubreiearlindir Airport
City: Hereubreiearlindir
Country: Iceland
Elevation: 1500 ft.

Photos at Hereubreiearlindir Airport


   Photos courtesy of SpottingLog. You can add your own sightings and photos by signing up for a free trial today.



No photos found.

Weather at Hereubreiearlindir Airport


Time (UTC)DescriptionTempratureWindCloud coverageVisibilityPressureHumidity
13-Jun-2024 03:00Clear Sky7°C11 mph, S3%10000m1005hPa69%
13-Jun-2024 06:00Clear Sky7°C13 mph, S10%10000m1004hPa68%
13-Jun-2024 09:00Few Clouds9°C16 mph, S22%10000m1004hPa62%
13-Jun-2024 12:00Few Clouds11°C16 mph, S16%10000m1004hPa57%
13-Jun-2024 15:00Clear Sky12°C16 mph, S5%10000m1005hPa54%
13-Jun-2024 18:00Clear Sky11°C13 mph, S4%10000m1006hPa52%
13-Jun-2024 21:00Clear Sky10°C11 mph, S9%10000m1008hPa51%
14-Jun-2024 00:00Clear Sky8°C7 mph, SE7%10000m1010hPa57%
14-Jun-2024 03:00Clear Sky6°C7 mph, S2%10000m1011hPa65%
14-Jun-2024 06:00Clear Sky6°C7 mph, S4%10000m1012hPa54%
14-Jun-2024 09:00Few Clouds10°C4 mph, SE16%10000m1012hPa39%
14-Jun-2024 12:00Few Clouds14°C4 mph, SE18%10000m1011hPa25%
14-Jun-2024 15:00Broken Clouds16°C4 mph, E57%10000m1010hPa23%
14-Jun-2024 18:00Scattered Clouds17°C7 mph, E39%10000m1010hPa24%
14-Jun-2024 21:00Few Clouds16°C9 mph, E18%10000m1011hPa33%
15-Jun-2024 00:00Scattered Clouds12°C7 mph, E33%10000m1012hPa50%
15-Jun-2024 03:00Broken Clouds10°C2 mph, N80%10000m1013hPa61%
15-Jun-2024 06:00Overcast Clouds10°C2 mph, N90%10000m1014hPa60%
15-Jun-2024 09:00Overcast Clouds12°C2 mph, N99%10000m1014hPa52%
15-Jun-2024 12:00Overcast Clouds14°C4 mph, N99%10000m1013hPa44%
15-Jun-2024 15:00Overcast Clouds16°C7 mph, N100%10000m1012hPa39%
15-Jun-2024 18:00Overcast Clouds15°C13 mph, N100%10000m1012hPa40%
15-Jun-2024 21:00Overcast Clouds12°C11 mph, N100%10000m1013hPa57%
16-Jun-2024 00:00Overcast Clouds10°C9 mph, N100%10000m1014hPa73%
16-Jun-2024 03:00Overcast Clouds8°C9 mph, N99%10000m1014hPa78%
16-Jun-2024 06:00Overcast Clouds8°C7 mph, N97%10000m1014hPa80%
16-Jun-2024 09:00Overcast Clouds8°C9 mph, N100%10000m1014hPa76%
16-Jun-2024 12:00Overcast Clouds9°C9 mph, N100%10000m1014hPa67%
16-Jun-2024 15:00Overcast Clouds11°C13 mph, N100%10000m1014hPa52%
16-Jun-2024 18:00Overcast Clouds10°C16 mph, N99%10000m1015hPa54%
16-Jun-2024 21:00Overcast Clouds7°C13 mph, N97%10000m1017hPa64%
17-Jun-2024 00:00Overcast Clouds4°C11 mph, N91%10000m1019hPa84%
17-Jun-2024 03:00Overcast Clouds3°C9 mph, N100%10000m1020hPa87%
17-Jun-2024 06:00Overcast Clouds3°C9 mph, N100%10000m1022hPa71%
17-Jun-2024 09:00Scattered Clouds5°C9 mph, N36%10000m1022hPa54%
17-Jun-2024 12:00Few Clouds8°C7 mph, NE21%10000m1021hPa40%
17-Jun-2024 15:00Clear Sky10°C7 mph, N1%10000m1019hPa31%
17-Jun-2024 18:00Clear Sky11°C7 mph, N2%10000m1019hPa29%
17-Jun-2024 21:00Clear Sky11°C4 mph, NE8%10000m1019hPa33%
18-Jun-2024 00:00Scattered Clouds8°C7 mph, SE47%10000m1018hPa44%